sensor_id;sensor_type;location;lat;lon;timestamp;pressure;altitude;pressure_sealevel;temperature;humidity
77867;BME280;67271;59.120;37.970;2023-06-10T00:03:38;100786.34;;;5.33;69.36
77867;BME280;67271;59.120;37.970;2023-06-10T00:06:04;100788.03;;;5.34;69.32
77867;BME280;67271;59.120;37.970;2023-06-10T00:08:31;100794.09;;;5.36;69.18
77867;BME280;67271;59.120;37.970;2023-06-10T00:10:57;100793.09;;;5.37;69.48
77867;BME280;67271;59.120;37.970;2023-06-10T00:13:22;100790.81;;;5.42;69.52
77867;BME280;67271;59.120;37.970;2023-06-10T00:15:48;100805.78;;;5.45;69.39
77867;BME280;67271;59.120;37.970;2023-06-10T00:18:14;100800.97;;;5.49;69.09
77867;BME280;67271;59.120;37.970;2023-06-10T00:20:41;100798.00;;;5.52;68.98
77867;BME280;67271;59.120;37.970;2023-06-10T00:23:08;100806.03;;;5.52;69.20
77867;BME280;67271;59.120;37.970;2023-06-10T00:25:37;100803.50;;;5.50;69.13
77867;BME280;67271;59.120;37.970;2023-06-10T00:28:02;100806.19;;;5.50;69.15
77867;BME280;67271;59.120;37.970;2023-06-10T00:30:28;100806.19;;;5.50;69.43
77867;BME280;67271;59.120;37.970;2023-06-10T00:32:54;100807.16;;;5.49;69.41
77867;BME280;67271;59.120;37.970;2023-06-10T00:35:20;100815.09;;;5.51;69.32
77867;BME280;67271;59.120;37.970;2023-06-10T00:37:46;100814.22;;;5.50;69.79
77867;BME280;67271;59.120;37.970;2023-06-10T00:40:12;100818.63;;;5.51;69.71
77867;BME280;67271;59.120;37.970;2023-06-10T00:42:38;100823.13;;;5.51;69.72
77867;BME280;67271;59.120;37.970;2023-06-10T00:45:05;100820.75;;;5.48;69.62
77867;BME280;67271;59.120;37.970;2023-06-10T00:47:31;100824.56;;;5.45;69.93
77867;BME280;67271;59.120;37.970;2023-06-10T00:49:57;100827.53;;;5.42;69.80
77867;BME280;67271;59.120;37.970;2023-06-10T00:52:27;100835.06;;;5.38;69.85
77867;BME280;67271;59.120;37.970;2023-06-10T00:54:53;100842.25;;;5.38;69.88
77867;BME280;67271;59.120;37.970;2023-06-10T00:57:19;100847.91;;;5.35;69.94
77867;BME280;67271;59.120;37.970;2023-06-10T00:59:48;100848.88;;;5.34;70.02
77867;BME280;67271;59.120;37.970;2023-06-10T01:02:15;100858.50;;;5.36;69.91
77867;BME280;67271;59.120;37.970;2023-06-10T01:04:41;100854.84;;;5.37;69.77
77867;BME280;67271;59.120;37.970;2023-06-10T01:07:16;100863.44;;;5.41;70.06
77867;BME280;67271;59.120;37.970;2023-06-10T01:12:43;100859.63;;;5.34;69.73
77867;BME280;67271;59.120;37.970;2023-06-10T01:15:17;100860.22;;;5.28;70.11
77867;BME280;67271;59.120;37.970;2023-06-10T01:17:59;100870.81;;;5.20;70.22
77867;BME280;67271;59.120;37.970;2023-06-10T01:20:26;100861.81;;;5.11;70.40
77867;BME280;67271;59.120;37.970;2023-06-10T01:22:56;100859.56;;;5.06;70.80
77867;BME280;67271;59.120;37.970;2023-06-10T01:25:24;100867.06;;;5.03;70.95
77867;BME280;67271;59.120;37.970;2023-06-10T01:30:55;100870.72;;;4.92;70.90
77867;BME280;67271;59.120;37.970;2023-06-10T01:33:31;100871.00;;;4.89;70.87
77867;BME280;67271;59.120;37.970;2023-06-10T01:35:57;100882.16;;;4.85;71.01
77867;BME280;67271;59.120;37.970;2023-06-10T01:38:26;100882.31;;;4.83;71.06
77867;BME280;67271;59.120;37.970;2023-06-10T01:40:56;100883.28;;;4.82;70.80
77867;BME280;67271;59.120;37.970;2023-06-10T01:43:23;100889.34;;;4.84;70.90
77867;BME280;67271;59.120;37.970;2023-06-10T01:45:49;100890.06;;;4.86;70.52
77867;BME280;67271;59.120;37.970;2023-06-10T01:48:16;100901.50;;;4.88;70.79
77867;BME280;67271;59.120;37.970;2023-06-10T01:50:42;100901.34;;;4.90;70.56
77867;BME280;67271;59.120;37.970;2023-06-10T01:53:09;100903.63;;;4.94;70.47
77867;BME280;67271;59.120;37.970;2023-06-10T01:55:35;100907.69;;;4.98;70.72
77867;BME280;67271;59.120;37.970;2023-06-10T01:58:01;100904.75;;;5.01;70.36
77867;BME280;67271;59.120;37.970;2023-06-10T02:00:27;100905.03;;;5.08;70.26
77867;BME280;67271;59.120;37.970;2023-06-10T02:02:53;100908.25;;;5.12;69.98
77867;BME280;67271;59.120;37.970;2023-06-10T02:05:19;100915.44;;;5.21;69.72
77867;BME280;67271;59.120;37.970;2023-06-10T02:07:44;100919.97;;;5.30;69.07
77867;BME280;67271;59.120;37.970;2023-06-10T02:10:10;100913.00;;;5.47;69.08
77867;BME280;67271;59.120;37.970;2023-06-10T02:12:36;100926.09;;;5.59;68.67
77867;BME280;67271;59.120;37.970;2023-06-10T02:15:02;100926.34;;;5.75;68.18
77867;BME280;67271;59.120;37.970;2023-06-10T02:17:29;100929.41;;;6.00;67.92
77867;BME280;67271;59.120;37.970;2023-06-10T02:19:55;100925.59;;;8.22;62.54
77867;BME280;67271;59.120;37.970;2023-06-10T02:22:23;100915.03;;;10.54;57.35
77867;BME280;67271;59.120;37.970;2023-06-10T02:24:49;100915.03;;;11.82;54.84
77867;BME280;67271;59.120;37.970;2023-06-10T02:27:16;100912.09;;;12.78;52.92
77867;BME280;67271;59.120;37.970;2023-06-10T02:29:42;100916.47;;;12.94;53.03
77867;BME280;67271;59.120;37.970;2023-06-10T02:32:10;100917.47;;;13.85;51.89
77867;BME280;67271;59.120;37.970;2023-06-10T02:34:36;100927.94;;;15.18;49.70
77867;BME280;67271;59.120;37.970;2023-06-10T02:37:03;100927.31;;;16.01;48.00
77867;BME280;67271;59.120;37.970;2023-06-10T02:39:30;100931.75;;;16.60;47.16
77867;BME280;67271;59.120;37.970;2023-06-10T02:41:56;100935.13;;;17.00;46.73
77867;BME280;67271;59.120;37.970;2023-06-10T02:44:22;100932.25;;;17.26;46.38
77867;BME280;67271;59.120;37.970;2023-06-10T02:46:49;100939.56;;;17.32;45.77
77867;BME280;67271;59.120;37.970;2023-06-10T02:49:15;100936.59;;;17.65;45.01
77867;BME280;67271;59.120;37.970;2023-06-10T02:51:42;100944.06;;;18.19;43.83
77867;BME280;67271;59.120;37.970;2023-06-10T02:54:08;100948.28;;;18.40;43.65
77867;BME280;67271;59.120;37.970;2023-06-10T02:56:34;100942.09;;;18.81;42.94
77867;BME280;67271;59.120;37.970;2023-06-10T02:59:04;100947.03;;;19.21;42.04
77867;BME280;67271;59.120;37.970;2023-06-10T03:01:33;100959.13;;;19.73;41.57
77867;BME280;67271;59.120;37.970;2023-06-10T03:04:05;100963.66;;;19.67;40.90
77867;BME280;67271;59.120;37.970;2023-06-10T03:06:32;100968.69;;;19.41;41.12
77867;BME280;67271;59.120;37.970;2023-06-10T03:09:10;100969.31;;;19.13;40.61
77867;BME280;67271;59.120;37.970;2023-06-10T03:11:38;100978.50;;;19.18;40.11
77867;BME280;67271;59.120;37.970;2023-06-10T03:14:04;100976.50;;;18.95;40.64
77867;BME280;67271;59.120;37.970;2023-06-10T03:16:31;100970.44;;;18.75;41.05
77867;BME280;67271;59.120;37.970;2023-06-10T03:18:58;100985.53;;;19.44;39.61
77867;BME280;67271;59.120;37.970;2023-06-10T03:21:24;100981.47;;;19.77;38.60
77867;BME280;67271;59.120;37.970;2023-06-10T03:23:51;100980.59;;;19.64;38.71
77867;BME280;67271;59.120;37.970;2023-06-10T03:26:17;100981.88;;;19.50;38.73
77867;BME280;67271;59.120;37.970;2023-06-10T03:28:45;100984.47;;;19.98;38.01
77867;BME280;67271;59.120;37.970;2023-06-10T03:31:11;100985.66;;;20.37;37.44
77867;BME280;67271;59.120;37.970;2023-06-10T03:33:37;100988.69;;;20.88;37.24
77867;BME280;67271;59.120;37.970;2023-06-10T03:36:05;100992.38;;;21.33;36.20
77867;BME280;67271;59.120;37.970;2023-06-10T03:38:31;100991.63;;;21.38;36.29
77867;BME280;67271;59.120;37.970;2023-06-10T03:40:57;100998.47;;;21.97;35.75
77867;BME280;67271;59.120;37.970;2023-06-10T03:43:23;100999.69;;;21.89;35.16
77867;BME280;67271;59.120;37.970;2023-06-10T03:45:50;100999.66;;;21.39;35.76
77867;BME280;67271;59.120;37.970;2023-06-10T03:48:18;101006.22;;;21.10;36.07
77867;BME280;67271;59.120;37.970;2023-06-10T03:50:48;101014.19;;;20.83;35.63
77867;BME280;67271;59.120;37.970;2023-06-10T03:53:16;101009.56;;;20.72;35.57
77867;BME280;67271;59.120;37.970;2023-06-10T03:55:50;101015.78;;;21.07;34.99
77867;BME280;67271;59.120;37.970;2023-06-10T03:58:20;101015.41;;;21.15;35.22
77867;BME280;67271;59.120;37.970;2023-06-10T04:00:46;101020.16;;;21.32;34.46
77867;BME280;67271;59.120;37.970;2023-06-10T04:03:12;101023.44;;;21.45;34.33
77867;BME280;67271;59.120;37.970;2023-06-10T04:05:43;101029.03;;;20.24;35.52
77867;BME280;67271;59.120;37.970;2023-06-10T04:08:09;101027.75;;;19.61;36.09
77867;BME280;67271;59.120;37.970;2023-06-10T04:10:35;101027.38;;;19.10;36.41
77867;BME280;67271;59.120;37.970;2023-06-10T04:13:02;101025.66;;;19.45;36.21
77867;BME280;67271;59.120;37.970;2023-06-10T04:15:33;101022.22;;;20.03;35.21
77867;BME280;67271;59.120;37.970;2023-06-10T04:18:02;101027.31;;;20.93;34.47
77867;BME280;67271;59.120;37.970;2023-06-10T04:20:28;101021.69;;;20.99;34.10
77867;BME280;67271;59.120;37.970;2023-06-10T04:22:54;101026.16;;;21.29;33.82
77867;BME280;67271;59.120;37.970;2023-06-10T04:25:21;101026.47;;;20.92;34.96
77867;BME280;67271;59.120;37.970;2023-06-10T04:27:48;101022.13;;;21.19;34.13
77867;BME280;67271;59.120;37.970;2023-06-10T04:30:16;101017.06;;;21.73;33.88
77867;BME280;67271;59.120;37.970;2023-06-10T04:32:42;101016.53;;;22.76;32.97
77867;BME280;67271;59.120;37.970;2023-06-10T04:35:14;101022.34;;;22.80;33.08
77867;BME280;67271;59.120;37.970;2023-06-10T04:37:41;101034.22;;;23.24;32.52
77867;BME280;67271;59.120;37.970;2023-06-10T04:40:09;101032.25;;;22.59;33.14
77867;BME280;67271;59.120;37.970;2023-06-10T04:42:36;101039.72;;;20.67;34.80
77867;BME280;67271;59.120;37.970;2023-06-10T04:45:02;101040.69;;;18.08;38.54
77867;BME280;67271;59.120;37.970;2023-06-10T04:47:29;101043.44;;;18.51;37.70
77867;BME280;67271;59.120;37.970;2023-06-10T04:49:59;101038.69;;;18.65;37.46
77867;BME280;67271;59.120;37.970;2023-06-10T04:52:25;101034.28;;;20.02;35.84
77867;BME280;67271;59.120;37.970;2023-06-10T04:54:52;101039.63;;;21.02;34.70
77867;BME280;67271;59.120;37.970;2023-06-10T04:57:19;101039.66;;;22.37;33.11
77867;BME280;67271;59.120;37.970;2023-06-10T04:59:46;101031.81;;;23.06;32.51
77867;BME280;67271;59.120;37.970;2023-06-10T05:02:12;101042.72;;;22.96;32.91
77867;BME280;67271;59.120;37.970;2023-06-10T05:04:38;101047.50;;;21.95;33.94
77867;BME280;67271;59.120;37.970;2023-06-10T05:07:04;101054.75;;;18.62;37.50
77867;BME280;67271;59.120;37.970;2023-06-10T05:09:31;101062.25;;;17.98;38.20
77867;BME280;67271;59.120;37.970;2023-06-10T05:11:58;101071.38;;;15.99;40.26
77867;BME280;67271;59.120;37.970;2023-06-10T05:14:24;101080.13;;;15.07;41.67
77867;BME280;67271;59.120;37.970;2023-06-10T05:16:53;101064.25;;;17.09;38.62
77867;BME280;67271;59.120;37.970;2023-06-10T05:19:19;101050.88;;;18.87;36.22
77867;BME280;67271;59.120;37.970;2023-06-10T05:21:45;101049.00;;;19.66;35.20
77867;BME280;67271;59.120;37.970;2023-06-10T05:24:11;101056.94;;;20.51;34.51
77867;BME280;67271;59.120;37.970;2023-06-10T05:26:37;101045.34;;;21.23;33.75
77867;BME280;67271;59.120;37.970;2023-06-10T05:29:04;101051.53;;;22.21;33.04
77867;BME280;67271;59.120;37.970;2023-06-10T05:31:31;101060.06;;;21.17;33.87
77867;BME280;67271;59.120;37.970;2023-06-10T05:33:57;101053.19;;;20.22;34.66
77867;BME280;67271;59.120;37.970;2023-06-10T05:36:23;101057.13;;;20.14;34.83
77867;BME280;67271;59.120;37.970;2023-06-10T05:38:51;101058.19;;;18.75;35.95
77867;BME280;67271;59.120;37.970;2023-06-10T05:41:17;101060.94;;;18.50;36.80
77867;BME280;67271;59.120;37.970;2023-06-10T05:43:43;101066.97;;;20.45;34.62
77867;BME280;67271;59.120;37.970;2023-06-10T05:46:09;101065.28;;;20.79;33.73
77867;BME280;67271;59.120;37.970;2023-06-10T05:48:35;101064.19;;;20.80;34.05
77867;BME280;67271;59.120;37.970;2023-06-10T05:51:01;101064.59;;;21.23;33.52
77867;BME280;67271;59.120;37.970;2023-06-10T05:53:27;101052.91;;;21.45;33.68
77867;BME280;67271;59.120;37.970;2023-06-10T05:55:53;101057.09;;;22.59;32.88
77867;BME280;67271;59.120;37.970;2023-06-10T05:58:23;101054.09;;;22.44;32.52
77867;BME280;67271;59.120;37.970;2023-06-10T06:00:50;101065.66;;;22.08;32.78
77867;BME280;67271;59.120;37.970;2023-06-10T06:03:16;101052.78;;;22.30;32.65
77867;BME280;67271;59.120;37.970;2023-06-10T06:05:42;101061.66;;;22.32;32.50
77867;BME280;67271;59.120;37.970;2023-06-10T06:08:09;101063.34;;;21.71;33.15
77867;BME280;67271;59.120;37.970;2023-06-10T06:10:35;101057.72;;;21.66;33.22
77867;BME280;67271;59.120;37.970;2023-06-10T06:13:02;101065.22;;;21.99;33.09
77867;BME280;67271;59.120;37.970;2023-06-10T06:15:28;101067.16;;;22.32;32.87
77867;BME280;67271;59.120;37.970;2023-06-10T06:17:53;101066.84;;;22.67;32.43
77867;BME280;67271;59.120;37.970;2023-06-10T06:20:20;101068.72;;;21.66;33.12
77867;BME280;67271;59.120;37.970;2023-06-10T06:22:48;101057.19;;;21.97;32.88
77867;BME280;67271;59.120;37.970;2023-06-10T06:25:14;101063.88;;;21.56;33.54
77867;BME280;67271;59.120;37.970;2023-06-10T06:27:41;101062.50;;;22.16;32.64
77867;BME280;67271;59.120;37.970;2023-06-10T06:30:07;101073.13;;;21.10;33.74
77867;BME280;67271;59.120;37.970;2023-06-10T06:32:33;101074.03;;;21.28;33.44
77867;BME280;67271;59.120;37.970;2023-06-10T06:34:59;101075.97;;;21.15;33.29
77867;BME280;67271;59.120;37.970;2023-06-10T06:37:25;101075.88;;;20.05;34.69
77867;BME280;67271;59.120;37.970;2023-06-10T06:40:03;101073.66;;;18.88;36.11
77867;BME280;67271;59.120;37.970;2023-06-10T06:42:29;101077.00;;;18.04;36.64
77867;BME280;67271;59.120;37.970;2023-06-10T06:45:34;101088.09;;;16.95;37.88
77867;BME280;67271;59.120;37.970;2023-06-10T06:48:00;101084.13;;;16.78;37.85
77867;BME280;67271;59.120;37.970;2023-06-10T06:50:26;101094.91;;;16.07;38.46
77867;BME280;67271;59.120;37.970;2023-06-10T06:52:52;101084.53;;;17.39;37.22
77867;BME280;67271;59.120;37.970;2023-06-10T06:55:18;101084.53;;;18.33;35.73
77867;BME280;67271;59.120;37.970;2023-06-10T06:57:44;101076.94;;;19.15;34.85
77867;BME280;67271;59.120;37.970;2023-06-10T07:00:10;101071.44;;;20.16;33.86
77867;BME280;67271;59.120;37.970;2023-06-10T07:02:36;101089.81;;;20.34;33.74
77867;BME280;67271;59.120;37.970;2023-06-10T07:05:02;101078.59;;;19.94;34.10
77867;BME280;67271;59.120;37.970;2023-06-10T07:07:31;101089.00;;;19.92;34.15
77867;BME280;67271;59.120;37.970;2023-06-10T07:09:57;101077.50;;;19.35;34.54
77867;BME280;67271;59.120;37.970;2023-06-10T07:12:23;101085.00;;;18.73;34.98
77867;BME280;67271;59.120;37.970;2023-06-10T07:14:51;101094.91;;;19.11;34.26
77867;BME280;67271;59.120;37.970;2023-06-10T07:17:17;101085.31;;;18.83;34.78
77867;BME280;67271;59.120;37.970;2023-06-10T07:19:44;101087.78;;;18.24;35.06
77867;BME280;67271;59.120;37.970;2023-06-10T07:22:10;101100.47;;;17.49;36.24
77867;BME280;67271;59.120;37.970;2023-06-10T07:24:36;101111.41;;;17.04;36.54
77867;BME280;67271;59.120;37.970;2023-06-10T07:27:02;101099.50;;;16.52;36.88
77867;BME280;67271;59.120;37.970;2023-06-10T07:29:28;101105.81;;;16.59;36.81
77867;BME280;67271;59.120;37.970;2023-06-10T07:31:54;101109.84;;;17.28;36.18
77867;BME280;67271;59.120;37.970;2023-06-10T07:34:20;101102.44;;;16.84;36.40
77867;BME280;67271;59.120;37.970;2023-06-10T07:36:46;101110.03;;;16.16;37.56
77867;BME280;67271;59.120;37.970;2023-06-10T07:39:14;101102.28;;;15.39;38.81
77867;BME280;67271;59.120;37.970;2023-06-10T07:41:40;101107.53;;;14.93;39.53
77867;BME280;67271;59.120;37.970;2023-06-10T07:44:06;101108.41;;;15.41;39.07
77867;BME280;67271;59.120;37.970;2023-06-10T07:46:32;101109.81;;;16.04;38.17
77867;BME280;67271;59.120;37.970;2023-06-10T07:48:58;101103.09;;;16.26;37.92
77867;BME280;67271;59.120;37.970;2023-06-10T07:51:24;101105.41;;;16.23;38.05
77867;BME280;67271;59.120;37.970;2023-06-10T07:53:50;101105.81;;;16.00;38.13
77867;BME280;67271;59.120;37.970;2023-06-10T07:56:16;101100.75;;;16.76;37.33
77867;BME280;67271;59.120;37.970;2023-06-10T07:58:42;101110.25;;;17.31;36.37
77867;BME280;67271;59.120;37.970;2023-06-10T08:01:08;101110.59;;;16.97;36.77
77867;BME280;67271;59.120;37.970;2023-06-10T08:03:34;101113.81;;;16.28;37.53
77867;BME280;67271;59.120;37.970;2023-06-10T08:06:00;101111.06;;;16.02;38.00
77867;BME280;67271;59.120;37.970;2023-06-10T08:08:26;101115.69;;;16.08;37.67
77867;BME280;67271;59.120;37.970;2023-06-10T08:10:52;101113.09;;;15.60;38.23
77867;BME280;67271;59.120;37.970;2023-06-10T08:13:18;101115.75;;;15.47;38.19
77867;BME280;67271;59.120;37.970;2023-06-10T08:15:44;101121.66;;;15.57;37.99
77867;BME280;67271;59.120;37.970;2023-06-10T08:18:10;101121.31;;;15.73;37.90
77867;BME280;67271;59.120;37.970;2023-06-10T08:20:36;101122.81;;;15.96;37.97
77867;BME280;67271;59.120;37.970;2023-06-10T08:23:02;101123.44;;;15.98;37.55
77867;BME280;67271;59.120;37.970;2023-06-10T08:25:28;101127.00;;;15.85;37.76
77867;BME280;67271;59.120;37.970;2023-06-10T08:27:54;101128.91;;;15.84;37.93
77867;BME280;67271;59.120;37.970;2023-06-10T08:30:22;101132.81;;;15.56;38.30
77867;BME280;67271;59.120;37.970;2023-06-10T08:32:48;101131.41;;;15.25;38.76
77867;BME280;67271;59.120;37.970;2023-06-10T08:35:14;101144.66;;;14.66;39.62
77867;BME280;67271;59.120;37.970;2023-06-10T08:37:40;101138.13;;;13.90;40.66
77867;BME280;67271;59.120;37.970;2023-06-10T08:40:07;101140.31;;;13.59;41.25
77867;BME280;67271;59.120;37.970;2023-06-10T08:42:39;101159.06;;;13.53;41.44
77867;BME280;67271;59.120;37.970;2023-06-10T08:45:07;101160.38;;;13.57;41.94
77867;BME280;67271;59.120;37.970;2023-06-10T08:47:35;101167.81;;;13.34;42.41
77867;BME280;67271;59.120;37.970;2023-06-10T08:50:04;101160.44;;;13.28;42.48
77867;BME280;67271;59.120;37.970;2023-06-10T08:52:37;101145.19;;;13.84;41.79
77867;BME280;67271;59.120;37.970;2023-06-10T08:55:18;101151.94;;;14.59;40.16
77867;BME280;67271;59.120;37.970;2023-06-10T08:57:47;101137.34;;;15.01;39.37
77867;BME280;67271;59.120;37.970;2023-06-10T09:00:15;101133.31;;;15.85;38.60
77867;BME280;67271;59.120;37.970;2023-06-10T09:02:42;101142.38;;;16.06;38.29
77867;BME280;67271;59.120;37.970;2023-06-10T09:05:09;101134.28;;;15.58;39.17
77867;BME280;67271;59.120;37.970;2023-06-10T09:07:37;101134.06;;;15.53;39.58
77867;BME280;67271;59.120;37.970;2023-06-10T09:10:04;101146.50;;;15.75;38.94
77867;BME280;67271;59.120;37.970;2023-06-10T09:12:35;101148.03;;;15.43;39.19
77867;BME280;67271;59.120;37.970;2023-06-10T09:15:04;101162.41;;;14.83;39.80
77867;BME280;67271;59.120;37.970;2023-06-10T09:17:30;101157.75;;;14.28;40.48
77867;BME280;67271;59.120;37.970;2023-06-10T09:19:57;101155.56;;;14.17;41.16
77867;BME280;67271;59.120;37.970;2023-06-10T09:22:23;101145.13;;;14.42;40.94
77867;BME280;67271;59.120;37.970;2023-06-10T09:24:49;101153.56;;;15.09;40.04
77867;BME280;67271;59.120;37.970;2023-06-10T09:27:15;101150.50;;;15.79;38.73
77867;BME280;67271;59.120;37.970;2023-06-10T09:29:52;101149.50;;;16.07;38.47
77867;BME280;67271;59.120;37.970;2023-06-10T09:32:19;101142.59;;;16.57;37.78
77867;BME280;67271;59.120;37.970;2023-06-10T09:34:48;101152.28;;;16.73;37.79
77867;BME280;67271;59.120;37.970;2023-06-10T09:37:20;101154.28;;;15.78;39.77
77867;BME280;67271;59.120;37.970;2023-06-10T09:40:09;101160.38;;;14.64;41.86
77867;BME280;67271;59.120;37.970;2023-06-10T09:42:38;101168.06;;;14.11;42.80
77867;BME280;67271;59.120;37.970;2023-06-10T09:45:06;101163.41;;;14.05;42.80
77867;BME280;67271;59.120;37.970;2023-06-10T09:47:32;101155.94;;;14.35;42.02
77867;BME280;67271;59.120;37.970;2023-06-10T09:49:58;101153.84;;;14.86;40.89
77867;BME280;67271;59.120;37.970;2023-06-10T09:52:28;101155.75;;;15.81;39.58
77867;BME280;67271;59.120;37.970;2023-06-10T09:54:59;101158.72;;;15.93;39.55
77867;BME280;67271;59.120;37.970;2023-06-10T09:57:26;101157.63;;;15.74;40.00
77867;BME280;67271;59.120;37.970;2023-06-10T09:59:56;101159.09;;;15.70;40.05
77867;BME280;67271;59.120;37.970;2023-06-10T10:02:21;101157.06;;;16.11;39.96
77867;BME280;67271;59.120;37.970;2023-06-10T10:04:47;101161.72;;;16.31;39.78
77867;BME280;67271;59.120;37.970;2023-06-10T10:07:14;101163.63;;;16.37;39.63
77867;BME280;67271;59.120;37.970;2023-06-10T10:09:41;101163.63;;;16.30;39.75
77867;BME280;67271;59.120;37.970;2023-06-10T10:12:10;101167.63;;;16.67;39.28
77867;BME280;67271;59.120;37.970;2023-06-10T10:14:45;101170.97;;;16.69;39.17
77867;BME280;67271;59.120;37.970;2023-06-10T10:17:14;101171.81;;;16.43;39.40
77867;BME280;67271;59.120;37.970;2023-06-10T10:19:47;101156.44;;;16.55;38.90
77867;BME280;67271;59.120;37.970;2023-06-10T10:22:27;101148.69;;;16.79;38.91
77867;BME280;67271;59.120;37.970;2023-06-10T10:24:57;101157.91;;;16.97;38.89
77867;BME280;67271;59.120;37.970;2023-06-10T10:27:31;101153.34;;;16.65;38.99
77867;BME280;67271;59.120;37.970;2023-06-10T10:29:59;101153.72;;;16.55;38.95
77867;BME280;67271;59.120;37.970;2023-06-10T10:33:31;101172.84;;;16.42;38.97
77867;BME280;67271;59.120;37.970;2023-06-10T10:35:25;101170.69;;;15.44;39.09
77867;BME280;67271;59.120;37.970;2023-06-10T10:37:54;101167.47;;;14.86;39.90
77867;BME280;67271;59.120;37.970;2023-06-10T10:40:23;101168.38;;;15.00;39.90
77867;BME280;67271;59.120;37.970;2023-06-10T10:42:51;101182.56;;;15.23;39.47
77867;BME280;67271;59.120;37.970;2023-06-10T10:45:21;101184.94;;;15.33;39.70
77867;BME280;67271;59.120;37.970;2023-06-10T10:47:52;101178.22;;;15.35;39.74
77867;BME280;67271;59.120;37.970;2023-06-10T10:50:20;101177.59;;;15.33;40.02
77867;BME280;67271;59.120;37.970;2023-06-10T10:55:27;101165.16;;;15.24;40.52
77867;BME280;67271;59.120;37.970;2023-06-10T10:58:03;101159.31;;;15.34;40.67
77867;BME280;67271;59.120;37.970;2023-06-10T11:00:37;101164.09;;;15.60;40.13
77867;BME280;67271;59.120;37.970;2023-06-10T11:05:42;101156.63;;;15.95;39.06
77867;BME280;67271;59.120;37.970;2023-06-10T11:08:11;101152.44;;;16.18;39.11
77867;BME280;67271;59.120;37.970;2023-06-10T11:10:56;101145.75;;;16.34;38.53
77867;BME280;67271;59.120;37.970;2023-06-10T11:13:22;101164.66;;;16.16;38.02
77867;BME280;67271;59.120;37.970;2023-06-10T11:15:50;101162.72;;;15.90;38.80
77867;BME280;67271;59.120;37.970;2023-06-10T11:18:26;101157.03;;;15.85;38.74
77867;BME280;67271;59.120;37.970;2023-06-10T11:20:53;101159.94;;;15.70;38.79
77867;BME280;67271;59.120;37.970;2023-06-10T11:28:39;101155.56;;;15.82;38.44
77867;BME280;67271;59.120;37.970;2023-06-10T11:31:05;101151.63;;;16.24;37.86
77867;BME280;67271;59.120;37.970;2023-06-10T11:33:32;101154.34;;;16.77;37.49
77867;BME280;67271;59.120;37.970;2023-06-10T11:35:58;101161.53;;;16.45;37.53
77867;BME280;67271;59.120;37.970;2023-06-10T11:38:25;101180.03;;;15.56;38.67
77867;BME280;67271;59.120;37.970;2023-06-10T11:40:51;101172.31;;;14.91;39.18
77867;BME280;67271;59.120;37.970;2023-06-10T11:43:18;101173.25;;;14.49;39.90
77867;BME280;67271;59.120;37.970;2023-06-10T11:45:44;101172.84;;;14.30;40.49
77867;BME280;67271;59.120;37.970;2023-06-10T11:48:10;101190.34;;;14.00;40.47
77867;BME280;67271;59.120;37.970;2023-06-10T11:50:38;101191.66;;;13.83;40.73
77867;BME280;67271;59.120;37.970;2023-06-10T11:53:04;101199.22;;;13.87;41.22
77867;BME280;67271;59.120;37.970;2023-06-10T11:55:47;101188.34;;;14.30;40.01
77867;BME280;67271;59.120;37.970;2023-06-10T11:58:21;101185.19;;;14.48;40.36
77867;BME280;67271;59.120;37.970;2023-06-10T12:00:51;101181.47;;;14.55;39.84
77867;BME280;67271;59.120;37.970;2023-06-10T12:03:19;101178.94;;;14.54;40.14
77867;BME280;67271;59.120;37.970;2023-06-10T12:06:03;101175.31;;;14.75;40.23
77867;BME280;67271;59.120;37.970;2023-06-10T12:08:30;101170.41;;;14.91;39.82
77867;BME280;67271;59.120;37.970;2023-06-10T12:10:56;101171.59;;;15.10;39.79
77867;BME280;67271;59.120;37.970;2023-06-10T12:13:25;101174.66;;;15.41;39.47
77867;BME280;67271;59.120;37.970;2023-06-10T12:15:51;101171.53;;;15.44;39.56
77867;BME280;67271;59.120;37.970;2023-06-10T12:18:18;101208.66;;;15.80;39.14
77867;BME280;67271;59.120;37.970;2023-06-10T12:20:47;101197.88;;;14.90;40.34
77867;BME280;67271;59.120;37.970;2023-06-10T12:23:15;101183.09;;;14.28;41.47
77867;BME280;67271;59.120;37.970;2023-06-10T12:25:51;101199.50;;;14.14;41.77
77867;BME280;67271;59.120;37.970;2023-06-10T12:28:20;101210.06;;;14.23;41.26
77867;BME280;67271;59.120;37.970;2023-06-10T12:30:47;101193.06;;;14.00;41.79
77867;BME280;67271;59.120;37.970;2023-06-10T12:33:17;101200.16;;;13.59;42.14
77867;BME280;67271;59.120;37.970;2023-06-10T12:35:52;101194.06;;;13.42;42.08
77867;BME280;67271;59.120;37.970;2023-06-10T12:38:22;101200.72;;;13.39;41.80
77867;BME280;67271;59.120;37.970;2023-06-10T12:40:50;101201.38;;;13.27;42.21
77867;BME280;67271;59.120;37.970;2023-06-10T12:43:23;101184.41;;;13.39;41.92
77867;BME280;67271;59.120;37.970;2023-06-10T12:45:49;101199.00;;;13.68;41.45
77867;BME280;67271;59.120;37.970;2023-06-10T12:48:20;101185.75;;;14.01;40.91
77867;BME280;67271;59.120;37.970;2023-06-10T12:50:55;101191.66;;;14.04;40.57
77867;BME280;67271;59.120;37.970;2023-06-10T12:53:21;101190.47;;;13.92;40.85
77867;BME280;67271;59.120;37.970;2023-06-10T12:55:54;101193.66;;;13.95;40.60
77867;BME280;67271;59.120;37.970;2023-06-10T12:58:20;101184.34;;;13.69;41.53
77867;BME280;67271;59.120;37.970;2023-06-10T13:00:49;101190.75;;;13.61;41.58
77867;BME280;67271;59.120;37.970;2023-06-10T13:03:18;101195.22;;;13.69;41.76
77867;BME280;67271;59.120;37.970;2023-06-10T13:05:44;101189.13;;;13.81;41.67